createdAt,value
2019-03-10T00:02:14.732Z,12.26
2019-03-10T00:07:19.776Z,12.60
2019-03-10T00:12:24.516Z,12.94
2019-03-10T00:17:29.269Z,12.23
2019-03-10T00:22:34.520Z,11.66
2019-03-10T00:27:39.601Z,11.84
2019-03-10T00:32:45.674Z,11.93
2019-03-10T00:37:50.282Z,11.49
2019-03-10T00:43:10.901Z,11.41
2019-03-10T00:48:38.946Z,11.79
2019-03-10T00:53:43.837Z,11.81
2019-03-10T00:58:48.558Z,12.32
2019-03-10T01:03:53.527Z,12.12
2019-03-10T01:08:58.165Z,11.95
2019-03-10T01:14:03.314Z,10.78
2019-03-10T01:19:14.209Z,11.14
2019-03-10T01:24:20.093Z,11.25
2019-03-10T01:29:26.386Z,10.90
2019-03-10T01:34:49.320Z,11.45
2019-03-10T01:39:54.893Z,10.77
2019-03-10T01:45:03.379Z,11.05
2019-03-10T01:50:11.230Z,10.59
2019-03-10T01:55:16.347Z,10.68
2019-03-10T02:00:22.359Z,10.84
2019-03-10T02:05:27.308Z,10.35
2019-03-10T02:10:32.462Z,11.43
2019-03-10T02:15:37.198Z,12.07
2019-03-10T02:20:41.840Z,12.27
2019-03-10T02:25:47.485Z,12.71
2019-03-10T02:30:52.658Z,12.79
2019-03-10T02:35:58.558Z,13.34
2019-03-10T02:41:03.293Z,13.13
2019-03-10T02:46:08.013Z,13.38
2019-03-10T02:51:13.063Z,13.47
2019-03-10T02:56:18.935Z,13.77
2019-03-10T03:01:23.879Z,13.87
2019-03-10T03:06:28.532Z,14.09
2019-03-10T03:11:33.277Z,13.99
2019-03-10T03:16:37.912Z,13.93
2019-03-10T03:21:43.896Z,13.90
2019-03-10T03:26:48.825Z,13.79
2019-03-10T03:31:53.488Z,13.84
2019-03-10T03:36:58.214Z,13.63
2019-03-10T03:42:02.960Z,13.28
2019-03-10T03:47:08.733Z,13.56
2019-03-10T03:52:13.567Z,12.56
2019-03-10T03:57:19.436Z,13.00
2019-03-10T04:02:25.714Z,12.41
2019-03-10T04:07:31.485Z,12.06
2019-03-10T04:12:37.058Z,12.51
2019-03-10T04:17:41.692Z,12.80
2019-03-10T04:22:47.051Z,12.79
2019-03-10T04:27:52.902Z,12.69
2019-03-10T04:32:57.658Z,12.62
2019-03-10T04:38:02.399Z,11.76
2019-03-10T04:43:07.147Z,12.68
2019-03-10T04:48:15.119Z,12.87
2019-03-10T04:53:20.211Z,12.68
2019-03-10T04:58:26.087Z,12.63
2019-03-10T05:03:31.043Z,12.92
2019-03-10T05:08:36.037Z,12.74
2019-03-10T05:13:41.763Z,12.47
2019-03-10T05:18:48.828Z,12.76
2019-03-10T05:23:54.082Z,12.79
2019-03-10T05:29:00.016Z,12.87
2019-03-10T05:34:05.944Z,12.97
2019-03-10T05:39:10.683Z,12.67
2019-03-10T05:44:15.528Z,14.56
2019-03-10T05:49:20.581Z,16.09
2019-03-10T05:54:25.834Z,16.66
2019-03-10T05:59:30.580Z,16.22
2019-03-10T06:04:35.322Z,16.36
2019-03-10T06:09:40.196Z,17.00
2019-03-10T06:14:47.386Z,17.09
2019-03-10T06:19:55.975Z,16.78
2019-03-10T06:25:07.308Z,16.59
2019-03-10T06:30:17.556Z,16.61
2019-03-10T06:35:26.653Z,16.87
2019-03-10T06:40:32.673Z,16.99
2019-03-10T06:45:38.868Z,16.74
2019-03-10T06:50:43.722Z,16.74
2019-03-10T06:55:48.605Z,16.72
2019-03-10T07:00:53.709Z,16.65
2019-03-10T07:05:58.766Z,17.66
2019-03-10T07:11:04.517Z,17.34
2019-03-10T07:16:09.498Z,17.57
2019-03-10T07:21:15.248Z,17.65
2019-03-10T07:26:20.558Z,17.35
2019-03-10T07:31:29.474Z,18.02
2019-03-10T07:36:45.250Z,18.34
2019-03-10T07:41:54.697Z,18.71
2019-03-10T07:47:17.466Z,18.64
2019-03-10T07:52:39.315Z,18.68
2019-03-10T07:58:00.745Z,18.49
2019-03-10T08:03:23.307Z,19.17
2019-03-10T08:08:33.159Z,19.67
2019-03-10T08:13:39.760Z,19.72
2019-03-10T08:18:46.247Z,20.06
2019-03-10T08:24:09.315Z,19.99
2019-03-10T08:29:32.082Z,20.21
2019-03-10T08:34:47.477Z,20.38
2019-03-10T08:39:56.112Z,20.66
2019-03-10T08:45:08.635Z,20.29
2019-03-10T08:50:17.882Z,20.47
2019-03-10T08:55:40.857Z,20.04
2019-03-10T09:01:06.488Z,20.23
2019-03-10T09:06:15.442Z,20.83
2019-03-10T09:11:24.890Z,20.93
2019-03-10T09:16:43.764Z,21.38
2019-03-10T09:22:06.157Z,21.57
2019-03-10T09:27:25.091Z,21.61
2019-03-10T09:32:31.373Z,21.56
2019-03-10T09:37:49.839Z,22.07
2019-03-10T09:43:11.170Z,22.36
2019-03-10T09:48:26.770Z,22.16
2019-03-10T09:53:36.034Z,22.90
2019-03-10T09:58:57.452Z,21.71
2019-03-10T10:04:07.413Z,22.61
2019-03-10T10:09:16.775Z,22.96
2019-03-10T10:14:39.643Z,22.67
2019-03-10T10:20:01.398Z,22.83
2019-03-10T10:25:08.790Z,23.13
2019-03-10T10:30:15.891Z,23.26
2019-03-10T10:35:22.170Z,22.70
2019-03-10T10:40:37.573Z,23.60
2019-03-10T10:45:46.830Z,23.47
2019-03-10T10:50:57.510Z,23.54
2019-03-10T10:56:12.899Z,22.95
2019-03-10T11:01:35.857Z,23.76
2019-03-10T11:06:48.392Z,24.17
2019-03-10T11:12:12.918Z,24.32
2019-03-10T11:17:19.275Z,24.33
2019-03-10T11:22:32.010Z,24.00
2019-03-10T11:27:41.156Z,24.28
2019-03-10T11:32:48.703Z,23.35
2019-03-10T11:38:08.867Z,24.29
2019-03-10T11:43:15.152Z,24.08
2019-03-10T11:48:33.627Z,23.42
2019-03-10T11:53:43.382Z,23.50
2019-03-10T11:58:49.759Z,23.95
2019-03-10T12:04:14.273Z,23.65
2019-03-10T12:09:21.267Z,24.13
2019-03-10T12:14:26.005Z,24.71
2019-03-10T12:19:31.035Z,23.21
2019-03-10T12:24:35.606Z,23.66
2019-03-10T12:29:40.251Z,24.01
2019-03-10T12:34:44.857Z,23.05
2019-03-10T12:39:49.931Z,23.86
2019-03-10T12:44:54.525Z,23.84
2019-03-10T12:49:59.339Z,24.36
2019-03-10T12:55:05.401Z,24.12
2019-03-10T13:00:14.567Z,23.82
2019-03-10T13:05:21.022Z,24.31
2019-03-10T13:10:25.874Z,24.17
2019-03-10T13:15:32.611Z,23.56
2019-03-10T13:20:37.404Z,24.07
2019-03-10T13:25:43.014Z,24.30
2019-03-10T13:30:47.817Z,24.68
2019-03-10T13:35:52.459Z,24.68
2019-03-10T13:40:57.201Z,24.12
2019-03-10T13:46:01.946Z,24.64
2019-03-10T13:51:06.689Z,24.59
2019-03-10T13:56:11.433Z,24.20
2019-03-10T14:01:16.195Z,23.61
2019-03-10T14:06:20.925Z,23.76
2019-03-10T14:11:25.663Z,23.55
2019-03-10T14:16:30.314Z,23.76
2019-03-10T14:21:35.164Z,24.11
2019-03-10T14:26:40.210Z,24.08
2019-03-10T14:31:44.946Z,23.48
2019-03-10T14:36:49.795Z,23.60
2019-03-10T14:41:54.542Z,23.36
2019-03-10T14:46:59.288Z,24.04
2019-03-10T14:52:04.028Z,24.30
2019-03-10T14:57:09.018Z,23.59
2019-03-10T15:02:14.146Z,23.90
2019-03-10T15:07:18.766Z,23.86
2019-03-10T15:12:25.052Z,22.93
2019-03-10T15:17:30.223Z,22.25
2019-03-10T15:22:35.457Z,22.18
2019-03-10T15:27:40.048Z,22.35
2019-03-10T15:32:44.756Z,22.60
2019-03-10T15:37:50.414Z,22.59
2019-03-10T15:42:55.354Z,21.67
2019-03-10T15:48:00.515Z,21.92
2019-03-10T15:53:05.752Z,22.30
2019-03-10T15:58:10.418Z,22.17
2019-03-10T16:03:16.686Z,21.70
2019-03-10T16:08:21.701Z,22.01
2019-03-10T16:13:26.487Z,21.43
2019-03-10T16:18:31.148Z,21.87
2019-03-10T16:23:35.772Z,22.25
2019-03-10T16:28:40.368Z,21.98
2019-03-10T16:33:45.149Z,22.00
2019-03-10T16:38:52.269Z,21.89
2019-03-10T16:43:57.979Z,21.88
2019-03-10T16:49:06.392Z,21.58
2019-03-10T16:54:11.704Z,20.91
2019-03-10T16:59:16.454Z,19.97
2019-03-10T17:04:23.570Z,20.69
2019-03-10T17:09:29.390Z,19.72
2019-03-10T17:14:34.160Z,19.90
2019-03-10T17:19:38.905Z,20.29
2019-03-10T17:24:44.059Z,20.16
2019-03-10T17:29:50.788Z,19.94
2019-03-10T17:34:56.339Z,20.32
2019-03-10T17:40:01.355Z,20.18
2019-03-10T17:45:10.274Z,20.07
2019-03-10T17:50:17.085Z,19.21
2019-03-10T17:55:23.979Z,20.04
2019-03-10T18:00:36.692Z,19.94
2019-03-10T18:05:44.653Z,19.53
2019-03-10T18:10:50.541Z,18.84
2019-03-10T18:15:55.453Z,18.77
2019-03-10T18:21:00.343Z,19.05
2019-03-10T18:26:06.070Z,18.74
2019-03-10T18:31:11.056Z,18.30
2019-03-10T18:36:15.994Z,18.75
2019-03-10T18:41:20.714Z,18.83
2019-03-10T18:46:26.473Z,19.15
2019-03-10T18:51:35.562Z,19.35
2019-03-10T18:56:40.682Z,19.34
2019-03-10T19:01:45.417Z,19.46
2019-03-10T19:06:50.166Z,19.38
2019-03-10T19:11:54.907Z,19.45
2019-03-10T19:17:01.356Z,19.60
2019-03-10T19:22:07.198Z,19.60
2019-03-10T19:27:13.232Z,19.44
2019-03-10T19:32:17.884Z,19.57
2019-03-10T19:37:23.494Z,19.48
2019-03-10T19:42:28.239Z,19.46
2019-03-10T19:47:33.029Z,19.59
2019-03-10T19:52:37.666Z,19.64
2019-03-10T19:57:42.409Z,19.67
2019-03-10T20:02:47.158Z,19.66
2019-03-10T20:07:51.859Z,19.70
2019-03-10T20:12:56.744Z,19.78
2019-03-10T20:18:01.820Z,20.01
2019-03-10T20:23:06.844Z,19.97
2019-03-10T20:28:11.898Z,19.71
2019-03-10T20:33:17.040Z,19.41
2019-03-10T20:38:21.818Z,19.52
2019-03-10T20:43:27.057Z,19.29
2019-03-10T20:48:31.803Z,19.33
2019-03-10T20:53:37.898Z,19.83
2019-03-10T20:58:44.251Z,19.63
2019-03-10T21:03:50.143Z,19.34
2019-03-10T21:08:56.899Z,19.82
2019-03-10T21:14:02.315Z,19.79
2019-03-10T21:19:06.913Z,20.17
2019-03-10T21:24:11.715Z,20.53
2019-03-10T21:29:16.736Z,20.54
2019-03-10T21:34:22.578Z,20.36
2019-03-10T21:39:34.612Z,20.38
2019-03-10T21:44:33.602Z,19.96
2019-03-10T21:49:38.338Z,20.19
2019-03-10T21:54:43.713Z,19.56
2019-03-10T21:59:48.444Z,19.22
2019-03-10T22:04:53.598Z,19.34
2019-03-10T22:09:58.343Z,19.46
2019-03-10T22:15:03.083Z,18.97
2019-03-10T22:20:11.623Z,19.02
2019-03-10T22:25:16.797Z,19.11
2019-03-10T22:30:23.184Z,18.91
2019-03-10T22:35:29.325Z,18.53
2019-03-10T22:40:34.070Z,18.45
2019-03-10T22:45:39.023Z,18.62
2019-03-10T22:50:43.866Z,18.42
2019-03-10T23:01:00.629Z,18.75
2019-03-10T23:06:06.592Z,18.34
2019-03-10T23:11:11.339Z,18.47
2019-03-10T23:16:16.082Z,18.34
2019-03-10T23:21:21.134Z,18.72
2019-03-10T23:26:27.048Z,18.86
2019-03-10T23:31:32.155Z,18.73
2019-03-10T23:36:37.029Z,18.77
2019-03-10T23:41:41.907Z,18.50
2019-03-10T23:46:46.692Z,18.39
2019-03-10T23:51:51.472Z,17.95
2019-03-10T23:56:56.286Z,17.86
